createdAt,value
2017-11-10T00:02:04.701Z,8.56
2017-11-10T00:04:33.865Z,8.57
2017-11-10T00:07:03.093Z,8.52
2017-11-10T00:09:32.327Z,8.55
2017-11-10T00:12:01.580Z,8.49
2017-11-10T00:14:30.785Z,8.46
2017-11-10T00:16:59.974Z,8.45
2017-11-10T00:19:29.197Z,8.42
2017-11-10T00:21:59.142Z,8.46
2017-11-10T00:24:28.446Z,8.39
2017-11-10T00:26:57.645Z,8.39
2017-11-10T00:29:26.858Z,8.41
2017-11-10T00:31:56.066Z,8.43
2017-11-10T00:34:25.276Z,8.49
2017-11-10T00:36:54.501Z,8.50
2017-11-10T00:39:23.692Z,8.55
2017-11-10T00:41:52.912Z,8.56
2017-11-10T00:44:22.862Z,8.57
2017-11-10T00:46:52.081Z,8.55
2017-11-10T00:49:21.300Z,8.51
2017-11-10T00:51:51.279Z,8.51
2017-11-10T00:54:20.505Z,8.56
2017-11-10T00:56:49.717Z,8.55
2017-11-10T00:59:19.904Z,8.52
2017-11-10T01:01:49.121Z,8.53
2017-11-10T01:04:18.356Z,8.52
2017-11-10T01:06:47.872Z,8.50
2017-11-10T01:09:17.100Z,8.47
2017-11-10T01:11:46.344Z,8.46
2017-11-10T01:14:16.321Z,8.42
2017-11-10T01:16:45.516Z,8.44
2017-11-10T01:19:14.729Z,8.44
2017-11-10T01:21:46.432Z,8.44
2017-11-10T01:24:15.686Z,8.43
2017-11-10T01:26:45.637Z,8.44
2017-11-10T01:29:14.864Z,8.41
2017-11-10T01:31:44.860Z,8.44
2017-11-10T01:34:14.065Z,8.40
2017-11-10T01:36:43.289Z,8.39
2017-11-10T01:39:13.268Z,8.41
2017-11-10T01:41:42.497Z,8.45
2017-11-10T01:44:13.466Z,8.43
2017-11-10T01:46:43.519Z,8.46
2017-11-10T01:49:13.512Z,8.44
2017-11-10T01:51:42.703Z,8.41
2017-11-10T01:54:12.662Z,8.40
2017-11-10T01:56:41.870Z,8.41
2017-11-10T01:59:11.096Z,8.38
2017-11-10T02:01:40.341Z,8.36
2017-11-10T02:04:09.582Z,8.34
2017-11-10T02:06:40.342Z,8.37
2017-11-10T02:09:10.344Z,8.38
2017-11-10T02:11:40.333Z,8.44
2017-11-10T02:14:09.566Z,8.49
2017-11-10T02:16:39.577Z,8.50
2017-11-10T02:19:08.777Z,8.52
2017-11-10T02:21:38.756Z,8.52
2017-11-10T02:24:07.967Z,8.55
2017-11-10T02:26:38.724Z,8.50
2017-11-10T02:29:07.908Z,8.49
2017-11-10T02:31:37.905Z,8.51
2017-11-10T02:34:07.103Z,8.48
2017-11-10T02:36:36.312Z,8.49
2017-11-10T02:39:07.025Z,8.53
2017-11-10T02:41:36.448Z,8.52
2017-11-10T02:44:06.686Z,8.54
2017-11-10T02:46:35.909Z,8.52
2017-11-10T02:49:05.129Z,8.48
2017-11-10T02:51:34.476Z,8.47
2017-11-10T02:54:04.502Z,8.49
2017-11-10T02:56:34.531Z,8.47
2017-11-10T02:59:04.512Z,8.48
2017-11-10T03:01:35.254Z,8.54
2017-11-10T03:04:04.494Z,8.56
2017-11-10T03:06:33.730Z,8.55
2017-11-10T03:09:02.953Z,8.56
2017-11-10T03:11:32.156Z,8.57
2017-11-10T03:14:02.144Z,8.56
2017-11-10T03:16:32.891Z,8.55
2017-11-10T03:19:02.117Z,8.59
2017-11-10T03:21:31.373Z,8.63
2017-11-10T03:24:00.739Z,8.58
2017-11-10T03:26:30.181Z,8.51
2017-11-10T03:29:00.914Z,8.51
2017-11-10T03:31:30.146Z,8.51
2017-11-10T03:34:00.112Z,8.57
2017-11-10T03:36:29.304Z,8.58
2017-11-10T03:38:58.515Z,8.64
2017-11-10T03:41:27.756Z,8.65
2017-11-10T03:43:57.007Z,8.65
2017-11-10T03:46:26.212Z,8.64
2017-11-10T03:48:55.420Z,8.63
2017-11-10T03:51:24.600Z,8.63
2017-11-10T03:53:53.806Z,8.60
2017-11-10T03:56:23.022Z,8.60
2017-11-10T03:58:53.116Z,8.61
2017-11-10T04:01:22.324Z,8.59
2017-11-10T04:03:52.383Z,8.61
2017-11-10T04:06:21.590Z,8.61
2017-11-10T04:08:50.801Z,8.61
2017-11-10T04:11:20.093Z,8.60
2017-11-10T04:13:49.298Z,8.61
2017-11-10T04:16:18.489Z,8.61
2017-11-10T04:18:47.694Z,8.62
2017-11-10T04:21:16.908Z,8.57
2017-11-10T04:23:46.125Z,8.61
2017-11-10T04:26:15.344Z,8.63
2017-11-10T04:28:45.349Z,8.64
2017-11-10T04:31:14.656Z,8.69
2017-11-10T04:33:44.627Z,8.69
2017-11-10T04:36:13.844Z,8.69
2017-11-10T04:38:43.077Z,8.69
2017-11-10T04:41:13.052Z,8.71
2017-11-10T04:43:43.228Z,8.73
2017-11-10T04:46:12.461Z,8.73
2017-11-10T04:48:41.683Z,8.76
2017-11-10T04:51:10.879Z,8.76
2017-11-10T04:53:40.881Z,8.76
2017-11-10T04:56:10.073Z,8.76
2017-11-10T04:58:39.300Z,8.74
2017-11-10T05:01:09.289Z,8.77
2017-11-10T05:03:38.529Z,8.80
2017-11-10T05:06:07.732Z,8.87
2017-11-10T05:08:36.953Z,8.86
2017-11-10T05:11:06.172Z,8.79
2017-11-10T05:13:35.364Z,8.79
2017-11-10T05:16:04.598Z,8.84
2017-11-10T05:18:34.580Z,8.88
2017-11-10T05:21:03.800Z,8.91
2017-11-10T05:23:32.993Z,8.89
2017-11-10T05:26:02.253Z,8.85
2017-11-10T05:28:31.462Z,8.82
2017-11-10T05:31:00.655Z,8.83
2017-11-10T05:33:30.038Z,8.85
2017-11-10T05:35:59.228Z,8.91
2017-11-10T05:38:28.538Z,8.93
2017-11-10T05:40:57.736Z,8.94
2017-11-10T05:43:26.952Z,8.94
2017-11-10T05:45:56.168Z,8.96
2017-11-10T05:48:25.380Z,9.00
2017-11-10T05:50:54.621Z,8.99
2017-11-10T05:53:23.934Z,8.98
2017-11-10T05:55:53.132Z,8.99
2017-11-10T05:58:22.326Z,9.00
2017-11-10T06:00:51.636Z,9.03
2017-11-10T06:03:20.809Z,9.05
2017-11-10T06:05:50.018Z,9.08
2017-11-10T06:08:19.293Z,9.10
2017-11-10T06:10:48.521Z,9.13
2017-11-10T06:13:17.708Z,9.12
2017-11-10T06:15:47.045Z,9.11
2017-11-10T06:18:16.244Z,9.06
2017-11-10T06:20:45.454Z,9.04
2017-11-10T06:23:15.441Z,9.04
2017-11-10T06:25:44.701Z,9.08
2017-11-10T06:28:13.908Z,9.07
2017-11-10T06:30:43.135Z,9.09
2017-11-10T06:33:12.381Z,9.04
2017-11-10T06:35:42.348Z,9.09
2017-11-10T06:38:11.606Z,9.11
2017-11-10T06:40:41.645Z,9.11
2017-11-10T06:43:11.577Z,9.12
2017-11-10T06:45:40.785Z,9.15
2017-11-10T06:48:10.016Z,9.17
2017-11-10T06:50:40.312Z,9.18
2017-11-10T06:53:11.024Z,9.20
2017-11-10T06:55:41.368Z,9.22
2017-11-10T06:58:10.576Z,9.23
2017-11-10T07:00:39.753Z,9.23
2017-11-10T07:03:08.977Z,9.24
2017-11-10T07:05:38.171Z,9.27
2017-11-10T07:08:07.403Z,9.29
2017-11-10T07:10:36.610Z,9.31
2017-11-10T07:13:05.816Z,9.31
2017-11-10T07:15:35.027Z,9.33
2017-11-10T07:18:04.212Z,9.31
2017-11-10T07:20:33.435Z,9.31
2017-11-10T07:23:02.647Z,9.34
2017-11-10T07:25:31.866Z,9.32
2017-11-10T07:28:02.018Z,9.33
2017-11-10T07:30:31.242Z,9.33
2017-11-10T07:33:00.429Z,9.37
2017-11-10T07:35:29.630Z,9.39
2017-11-10T07:37:58.848Z,9.42
2017-11-10T07:40:28.155Z,9.44
2017-11-10T07:42:58.268Z,9.47
2017-11-10T07:45:27.492Z,9.40
2017-11-10T07:47:57.480Z,9.38
2017-11-10T07:50:26.748Z,9.34
2017-11-10T07:52:55.965Z,9.36
2017-11-10T07:55:25.166Z,9.37
2017-11-10T07:57:54.393Z,9.32
2017-11-10T08:00:24.352Z,9.34
2017-11-10T08:02:53.564Z,9.34
2017-11-10T08:05:22.756Z,9.36
2017-11-10T08:07:52.044Z,9.42
2017-11-10T08:10:21.235Z,9.44
2017-11-10T08:12:50.472Z,9.44
2017-11-10T08:15:19.849Z,9.47
2017-11-10T08:17:49.045Z,9.45
2017-11-10T08:20:18.269Z,9.49
2017-11-10T08:22:47.480Z,9.48
2017-11-10T08:25:16.728Z,9.53
2017-11-10T08:27:46.663Z,9.58
2017-11-10T08:30:15.904Z,9.63
2017-11-10T08:32:45.881Z,9.63
2017-11-10T08:35:15.097Z,9.60
2017-11-10T08:37:45.075Z,9.56
2017-11-10T08:40:14.295Z,9.53
2017-11-10T08:42:43.502Z,9.52
2017-11-10T08:45:12.713Z,9.53
2017-11-10T08:47:41.935Z,9.55
2017-11-10T08:50:11.225Z,9.53
2017-11-10T08:52:41.182Z,9.55
2017-11-10T08:55:10.513Z,9.52
2017-11-10T08:57:41.223Z,9.51
2017-11-10T09:00:10.443Z,9.55
2017-11-10T09:02:39.653Z,9.52
2017-11-10T09:05:08.856Z,9.54
2017-11-10T09:07:38.321Z,9.53
2017-11-10T09:10:07.505Z,9.52
2017-11-10T09:12:36.699Z,9.55
2017-11-10T09:15:05.913Z,9.57
2017-11-10T09:17:35.137Z,9.57
2017-11-10T09:20:04.374Z,9.55
2017-11-10T09:22:33.636Z,9.56
2017-11-10T09:25:02.908Z,9.52
2017-11-10T09:27:32.118Z,9.57
2017-11-10T09:30:06.873Z,9.58
2017-11-10T09:32:42.483Z,9.60
2017-11-10T09:35:17.114Z,9.62
2017-11-10T09:37:51.737Z,9.66
2017-11-10T09:40:39.536Z,9.69
2017-11-10T09:43:19.361Z,9.69
2017-11-10T09:45:49.323Z,9.70
2017-11-10T09:48:23.917Z,9.72
2017-11-10T09:50:58.662Z,9.72
2017-11-10T09:53:44.496Z,9.70
2017-11-10T10:10:01.017Z,9.79
2017-11-10T10:12:30.242Z,9.84
2017-11-10T10:28:22.138Z,10.22
2017-11-10T10:30:52.221Z,10.28
2017-11-10T10:33:22.325Z,10.31
2017-11-10T10:35:51.622Z,10.36
2017-11-10T10:38:20.825Z,10.37
2017-11-10T10:40:50.046Z,10.38
2017-11-10T10:43:19.324Z,10.41
2017-11-10T10:45:49.472Z,10.38
2017-11-10T10:48:18.722Z,10.42
2017-11-10T10:50:47.955Z,10.43
2017-11-10T10:53:17.929Z,10.43
2017-11-10T10:55:51.441Z,10.43
2017-11-10T10:58:22.540Z,10.46
2017-11-10T11:00:51.781Z,10.49
2017-11-10T11:03:20.976Z,10.53
2017-11-10T11:05:50.178Z,10.63
2017-11-10T11:08:19.388Z,10.64
2017-11-10T11:10:49.365Z,10.71
2017-11-10T11:13:18.585Z,10.76
2017-11-10T11:15:47.789Z,10.76
2017-11-10T11:18:17.013Z,10.78
2017-11-10T11:20:46.225Z,10.79
2017-11-10T11:23:15.509Z,10.80
2017-11-10T11:25:45.473Z,10.84
2017-11-10T11:28:14.729Z,10.77
2017-11-10T11:30:44.700Z,10.79
2017-11-10T11:33:15.429Z,10.80
2017-11-10T11:35:44.668Z,10.87
2017-11-10T11:38:14.628Z,10.88
2017-11-10T11:40:43.889Z,10.91
2017-11-10T11:43:13.093Z,10.89
2017-11-10T11:45:42.320Z,10.87
2017-11-10T11:48:11.608Z,10.89
2017-11-10T11:50:41.168Z,10.86
2017-11-10T11:53:10.352Z,10.76
2017-11-10T11:55:41.137Z,10.70
2017-11-10T11:58:10.340Z,10.64
2017-11-10T12:00:39.528Z,10.61
2017-11-10T12:03:08.770Z,10.55
2017-11-10T12:05:37.986Z,10.51
2017-11-10T12:08:08.229Z,10.49
2017-11-10T12:10:37.427Z,10.45
2017-11-10T12:13:06.683Z,10.42
2017-11-10T12:15:35.881Z,10.49
2017-11-10T12:18:05.092Z,10.49
2017-11-10T12:20:34.308Z,10.52
2017-11-10T12:23:04.380Z,10.51
2017-11-10T12:25:33.608Z,10.54
2017-11-10T12:28:03.612Z,10.52
2017-11-10T12:30:32.815Z,10.53
2017-11-10T12:33:02.174Z,10.51
2017-11-10T12:35:31.414Z,10.51
2017-11-10T12:38:00.653Z,10.48
2017-11-10T12:40:29.926Z,10.51
2017-11-10T12:42:59.876Z,10.49
2017-11-10T12:45:29.112Z,10.42
2017-11-10T12:47:58.314Z,10.40
2017-11-10T12:50:27.552Z,10.39
2017-11-10T12:52:56.920Z,10.38
2017-11-10T12:55:26.988Z,10.39
2017-11-10T12:57:57.003Z,10.35
2017-11-10T13:00:26.997Z,10.35
2017-11-10T13:02:57.037Z,10.35
2017-11-10T13:05:27.065Z,10.34
2017-11-10T13:07:56.236Z,10.34
2017-11-10T13:10:25.449Z,10.40
2017-11-10T13:12:54.709Z,10.43
2017-11-10T13:15:24.715Z,10.45
2017-11-10T13:17:54.040Z,10.46
2017-11-10T13:20:24.084Z,10.47
2017-11-10T13:22:53.298Z,10.50
2017-11-10T13:25:22.604Z,10.54
2017-11-10T13:27:53.433Z,10.60
2017-11-10T13:30:22.657Z,10.66
2017-11-10T13:32:52.036Z,10.65
2017-11-10T13:35:21.386Z,10.64
2017-11-10T13:37:51.381Z,10.64
2017-11-10T13:40:20.594Z,10.63
2017-11-10T13:42:50.618Z,10.67
2017-11-10T13:45:21.007Z,10.67
2017-11-10T13:47:50.220Z,10.68
2017-11-10T13:50:19.443Z,10.74
2017-11-10T13:52:48.688Z,10.81
2017-11-10T13:55:17.916Z,10.84
2017-11-10T13:57:47.900Z,10.84
2017-11-10T14:00:17.132Z,10.86
2017-11-10T14:02:47.251Z,10.89
2017-11-10T14:05:17.252Z,10.94
2017-11-10T14:07:46.461Z,10.95
2017-11-10T14:10:16.472Z,10.92
2017-11-10T14:12:46.482Z,10.87
2017-11-10T14:15:15.709Z,10.87
2017-11-10T14:17:45.037Z,10.84
2017-11-10T14:20:14.442Z,10.79
2017-11-10T14:22:43.673Z,10.75
2017-11-10T14:25:12.901Z,10.70
2017-11-10T14:27:42.305Z,10.65
2017-11-10T14:30:12.349Z,10.52
2017-11-10T14:32:41.733Z,10.43
2017-11-10T14:35:10.967Z,10.31
2017-11-10T14:37:40.201Z,10.20
2017-11-10T14:40:09.408Z,10.08
2017-11-10T14:42:38.618Z,9.99
2017-11-10T14:45:09.049Z,9.88
2017-11-10T14:47:38.252Z,9.82
2017-11-10T14:50:07.468Z,9.75
2017-11-10T14:52:36.725Z,9.69
2017-11-10T14:55:06.073Z,9.67
2017-11-10T14:57:35.364Z,9.69
2017-11-10T15:00:04.685Z,9.67
2017-11-10T15:02:33.966Z,9.68
2017-11-10T15:05:03.206Z,9.75
2017-11-10T15:07:32.416Z,9.70
2017-11-10T15:10:02.431Z,9.66
2017-11-10T15:12:31.845Z,9.69
2017-11-10T15:15:01.842Z,9.65
2017-11-10T15:17:31.048Z,9.59
2017-11-10T15:20:00.301Z,9.42
2017-11-10T15:22:29.509Z,9.11
2017-11-10T15:24:58.786Z,8.87
2017-11-10T15:27:28.169Z,8.74
2017-11-10T15:29:57.365Z,8.67
2017-11-10T15:32:27.362Z,8.64
2017-11-10T15:34:56.607Z,8.64
2017-11-10T15:37:25.847Z,8.67
2017-11-10T15:39:55.045Z,8.60
2017-11-10T15:42:24.351Z,8.56
2017-11-10T15:44:53.546Z,8.57
2017-11-10T15:47:23.565Z,8.48
2017-11-10T15:49:52.764Z,8.39
2017-11-10T15:52:22.812Z,8.39
2017-11-10T15:54:52.015Z,8.34
2017-11-10T15:57:21.223Z,8.34
2017-11-10T15:59:50.440Z,8.35
2017-11-10T16:02:19.654Z,8.40
2017-11-10T16:04:50.375Z,8.43
2017-11-10T16:07:19.623Z,8.46
2017-11-10T16:09:48.849Z,8.49
2017-11-10T16:12:18.097Z,8.58
2017-11-10T16:14:48.299Z,8.63
2017-11-10T16:17:17.505Z,8.66
2017-11-10T16:19:47.507Z,8.64
2017-11-10T16:22:16.720Z,8.67
2017-11-10T16:24:46.000Z,8.75
2017-11-10T16:27:15.209Z,8.77
2017-11-10T16:29:44.445Z,8.81
2017-11-10T16:32:13.665Z,8.78
2017-11-10T16:34:42.856Z,8.80
2017-11-10T16:37:12.048Z,8.80
2017-11-10T16:39:41.351Z,8.85
2017-11-10T16:42:10.583Z,8.84
2017-11-10T16:44:39.786Z,8.83
2017-11-10T16:47:08.978Z,8.76
2017-11-10T16:49:38.225Z,8.75
2017-11-10T16:52:07.377Z,8.76
2017-11-10T16:54:36.660Z,8.73
2017-11-10T16:57:05.870Z,8.73
2017-11-10T16:59:35.087Z,8.72
2017-11-10T17:02:04.318Z,8.72
2017-11-10T17:04:33.524Z,8.67
2017-11-10T17:07:02.754Z,8.69
2017-11-10T17:09:31.978Z,8.67
2017-11-10T17:12:01.196Z,8.60
2017-11-10T17:14:31.185Z,8.61
2017-11-10T17:17:00.600Z,8.56
2017-11-10T17:19:30.662Z,8.55
2017-11-10T17:22:00.004Z,8.47
2017-11-10T17:24:29.219Z,8.43
2017-11-10T17:26:59.193Z,8.44
2017-11-10T17:29:29.418Z,8.39
2017-11-10T17:31:58.685Z,8.38
2017-11-10T17:34:28.058Z,8.29
2017-11-10T17:36:58.038Z,8.30
2017-11-10T17:39:27.410Z,8.27
2017-11-10T17:41:56.674Z,8.23
2017-11-10T17:44:26.720Z,8.27
2017-11-10T17:46:56.689Z,8.27
2017-11-10T17:49:25.898Z,8.21
2017-11-10T17:51:55.912Z,8.19
2017-11-10T17:54:25.879Z,8.13
2017-11-10T17:56:55.161Z,8.17
2017-11-10T17:59:24.365Z,8.19
2017-11-10T18:01:53.604Z,8.16
2017-11-10T18:04:23.618Z,8.13
2017-11-10T18:06:53.074Z,8.13
2017-11-10T18:09:23.052Z,8.08
2017-11-10T18:11:53.038Z,8.07
2017-11-10T18:14:22.318Z,8.04
2017-11-10T18:16:51.534Z,7.97
2017-11-10T18:19:20.809Z,7.98
2017-11-10T18:21:50.028Z,7.96
2017-11-10T18:24:19.304Z,7.93
2017-11-10T18:26:48.545Z,7.82
2017-11-10T18:29:17.741Z,7.86
2017-11-10T18:31:48.484Z,7.86
2017-11-10T18:34:17.756Z,7.86
2017-11-10T18:36:47.061Z,7.83
2017-11-10T18:39:16.372Z,7.79
2017-11-10T18:41:45.607Z,7.83
2017-11-10T18:44:15.571Z,7.75
2017-11-10T18:46:44.755Z,7.73
2017-11-10T18:49:19.437Z,7.72
2017-11-10T18:51:48.645Z,7.69
2017-11-10T18:54:18.682Z,7.64
2017-11-10T18:56:48.137Z,7.65
2017-11-10T18:59:17.378Z,7.59
2017-11-10T19:01:47.325Z,7.59
2017-11-10T19:04:16.808Z,7.64
2017-11-10T19:06:46.042Z,7.59
2017-11-10T19:09:15.231Z,7.50
2017-11-10T19:11:44.465Z,7.54
2017-11-10T19:14:15.033Z,7.60
2017-11-10T19:16:44.310Z,7.53
2017-11-10T19:19:13.576Z,7.50
2017-11-10T19:21:43.550Z,7.45
2017-11-10T19:37:17.888Z,7.06
2017-11-10T19:39:47.914Z,7.06
2017-11-10T19:42:18.255Z,7.09
2017-11-10T19:44:48.253Z,7.13
2017-11-10T19:47:18.207Z,7.22
2017-11-10T19:49:47.503Z,7.23
2017-11-10T19:52:17.314Z,7.22
2017-11-10T19:54:47.529Z,7.24
2017-11-10T19:57:16.883Z,7.24
2017-11-10T19:59:47.172Z,7.29
2017-11-10T20:02:19.289Z,7.25
2017-11-10T20:04:49.616Z,7.23
2017-11-10T20:07:20.408Z,7.15
2017-11-10T20:09:49.673Z,7.13
2017-11-10T20:12:18.984Z,7.16
2017-11-10T20:14:48.841Z,7.16
2017-11-10T20:17:19.126Z,7.13
2017-11-10T20:19:48.313Z,7.15
2017-11-10T20:22:17.553Z,7.15
2017-11-10T20:24:46.783Z,7.16
2017-11-10T20:27:17.565Z,7.16
2017-11-10T20:29:46.815Z,7.12
2017-11-10T20:42:06.132Z,6.83
2017-11-10T20:44:35.357Z,6.93
2017-11-10T20:47:05.456Z,6.95
2017-11-10T20:49:35.524Z,7.02
2017-11-10T20:52:04.802Z,7.05
2017-11-10T20:54:34.024Z,7.11
2017-11-10T21:10:08.394Z,6.86
2017-11-10T21:12:37.890Z,6.86
2017-11-10T21:15:07.132Z,6.93
2017-11-10T21:17:36.438Z,6.94
2017-11-10T21:20:05.672Z,7.00
2017-11-10T21:22:35.740Z,7.03
2017-11-10T21:25:05.042Z,7.14
2017-11-10T21:27:34.624Z,7.24
2017-11-10T21:30:03.823Z,7.21
2017-11-10T21:32:33.122Z,7.22
2017-11-10T21:35:02.409Z,7.20
2017-11-10T21:37:33.553Z,7.16
2017-11-10T21:40:03.531Z,7.12
2017-11-10T21:42:32.850Z,7.09
2017-11-10T21:45:02.880Z,7.07
2017-11-10T21:47:33.106Z,7.09
2017-11-10T21:50:03.392Z,6.98
2017-11-10T21:52:32.777Z,6.93
2017-11-10T21:55:02.064Z,6.91
2017-11-10T21:57:31.350Z,6.89
2017-11-10T22:00:01.121Z,6.87
2017-11-10T22:02:30.713Z,6.85
2017-11-10T22:05:00.816Z,6.85
2017-11-10T22:07:30.106Z,6.84
2017-11-10T22:09:59.423Z,6.83
2017-11-10T22:12:28.628Z,6.79
2017-11-10T22:14:58.661Z,6.80
2017-11-10T22:17:27.887Z,6.71
2017-11-10T22:19:57.080Z,6.71
2017-11-10T22:22:26.318Z,6.70
2017-11-10T22:24:55.524Z,6.67
2017-11-10T22:27:24.821Z,6.67
2017-11-10T22:29:54.022Z,6.71
2017-11-10T22:32:23.253Z,6.74
2017-11-10T22:34:52.525Z,6.73
2017-11-10T22:37:21.769Z,6.73
2017-11-10T22:39:50.976Z,6.68
2017-11-10T22:42:20.182Z,6.70
2017-11-10T22:44:49.476Z,6.71
2017-11-10T22:47:18.688Z,6.73
2017-11-10T22:49:48.055Z,6.75
2017-11-10T22:52:17.265Z,6.77
2017-11-10T22:54:46.483Z,6.80
2017-11-10T22:57:15.667Z,6.79
2017-11-10T22:59:44.898Z,6.83
2017-11-10T23:02:14.169Z,6.79
2017-11-10T23:04:43.391Z,6.80
2017-11-10T23:07:12.617Z,6.78
2017-11-10T23:09:42.636Z,6.80
2017-11-10T23:12:12.661Z,6.87
2017-11-10T23:14:42.948Z,6.93
2017-11-10T23:17:12.205Z,6.94
2017-11-10T23:19:41.426Z,6.98
2017-11-10T23:22:10.640Z,6.95
2017-11-10T23:24:41.364Z,6.99
2017-11-10T23:27:10.604Z,6.98
2017-11-10T23:29:39.855Z,7.02
2017-11-10T23:32:09.059Z,7.00
2017-11-10T23:34:38.330Z,7.01
2017-11-10T23:37:07.619Z,7.03
2017-11-10T23:39:37.736Z,7.00
2017-11-10T23:42:07.088Z,7.06
2017-11-10T23:44:36.345Z,7.03
2017-11-10T23:47:05.562Z,7.07
2017-11-10T23:49:34.986Z,7.10
2017-11-10T23:52:04.997Z,7.06
2017-11-10T23:54:34.252Z,7.05
2017-11-10T23:57:03.477Z,7.04
2017-11-10T23:59:32.674Z,7.04
